sensor_id;sensor_type;location;lat;lon;timestamp;pressure;altitude;pressure_sealevel;temperature;humidity
24825;BME280;12910;57.690;11.974;2022-07-17T00:01:59;100963.06;;;14.47;100.00
24825;BME280;12910;57.690;11.974;2022-07-17T00:04:24;100965.59;;;14.44;100.00
24825;BME280;12910;57.690;11.974;2022-07-17T00:06:50;100973.34;;;14.42;100.00
24825;BME280;12910;57.690;11.974;2022-07-17T00:09:15;100974.19;;;14.43;100.00
24825;BME280;12910;57.690;11.974;2022-07-17T00:11:40;100969.88;;;14.42;100.00
24825;BME280;12910;57.690;11.974;2022-07-17T00:14:06;100971.59;;;14.40;100.00
24825;BME280;12910;57.690;11.974;2022-07-17T00:16:32;100977.63;;;14.40;100.00
24825;BME280;12910;57.690;11.974;2022-07-17T00:18:57;100978.47;;;14.38;100.00
24825;BME280;12910;57.690;11.974;2022-07-17T00:21:23;100974.16;;;14.37;100.00
24825;BME280;12910;57.690;11.974;2022-07-17T00:23:48;100981.91;;;14.37;100.00
24825;BME280;12910;57.690;11.974;2022-07-17T00:26:13;100983.56;;;14.31;100.00
24825;BME280;12910;57.690;11.974;2022-07-17T00:28:39;100986.16;;;14.31;100.00
24825;BME280;12910;57.690;11.974;2022-07-17T00:31:04;100981.00;;;14.31;100.00
24825;BME280;12910;57.690;11.974;2022-07-17T00:33:30;100977.56;;;14.32;100.00
24825;BME280;12910;57.690;11.974;2022-07-17T00:35:55;100981.88;;;14.35;100.00
24825;BME280;12910;57.690;11.974;2022-07-17T00:38:20;100987.00;;;14.30;100.00
24825;BME280;12910;57.690;11.974;2022-07-17T00:40:46;100990.44;;;14.28;100.00
24825;BME280;12910;57.690;11.974;2022-07-17T00:43:11;100987.84;;;14.26;100.00
24825;BME280;12910;57.690;11.974;2022-07-17T00:45:36;100989.56;;;14.26;100.00
24825;BME280;12910;57.690;11.974;2022-07-17T00:48:04;100993.84;;;14.28;100.00
24825;BME280;12910;57.690;11.974;2022-07-17T00:50:33;100995.59;;;14.29;100.00
24825;BME280;12910;57.690;11.974;2022-07-17T00:52:58;100998.16;;;14.26;100.00
24825;BME280;12910;57.690;11.974;2022-07-17T00:55:24;101001.59;;;14.27;100.00
24825;BME280;12910;57.690;11.974;2022-07-17T00:57:51;101001.59;;;14.28;100.00
24825;BME280;12910;57.690;11.974;2022-07-17T01:00:20;100996.44;;;14.28;100.00
24825;BME280;12910;57.690;11.974;2022-07-17T01:02:51;100996.44;;;14.28;100.00
24825;BME280;12910;57.690;11.974;2022-07-17T01:05:18;100995.59;;;14.26;100.00
24825;BME280;12910;57.690;11.974;2022-07-17T01:07:44;100994.72;;;14.26;100.00
24825;BME280;12910;57.690;11.974;2022-07-17T01:10:11;100992.97;;;14.25;100.00
24825;BME280;12910;57.690;11.974;2022-07-17T01:12:37;100996.44;;;14.27;100.00
24825;BME280;12910;57.690;11.974;2022-07-17T01:15:03;100988.69;;;14.25;100.00
24825;BME280;12910;57.690;11.974;2022-07-17T01:17:30;100984.38;;;14.21;100.00
24825;BME280;12910;57.690;11.974;2022-07-17T01:19:55;100993.00;;;14.28;100.00
24825;BME280;12910;57.690;11.974;2022-07-17T01:22:21;100999.03;;;14.28;100.00
24825;BME280;12910;57.690;11.974;2022-07-17T01:24:46;100993.84;;;14.28;100.00
24825;BME280;12910;57.690;11.974;2022-07-17T01:27:12;100995.56;;;14.25;100.00
24825;BME280;12910;57.690;11.974;2022-07-17T01:29:38;100987.84;;;14.26;100.00
24825;BME280;12910;57.690;11.974;2022-07-17T01:32:04;100976.66;;;14.24;100.00
24825;BME280;12910;57.690;11.974;2022-07-17T01:34:30;100988.69;;;14.28;100.00
24825;BME280;12910;57.690;11.974;2022-07-17T01:36:56;100999.03;;;14.25;100.00
24825;BME280;12910;57.690;11.974;2022-07-17T01:39:21;100992.13;;;14.24;100.00
24825;BME280;12910;57.690;11.974;2022-07-17T01:42:07;100986.13;;;14.27;100.00
24825;BME280;12910;57.690;11.974;2022-07-17T01:44:32;100984.44;;;14.29;100.00
24825;BME280;12910;57.690;11.974;2022-07-17T01:46:58;100986.13;;;14.28;100.00
24825;BME280;12910;57.690;11.974;2022-07-17T01:49:23;100975.78;;;14.24;100.00
24825;BME280;12910;57.690;11.974;2022-07-17T01:51:49;100976.66;;;14.24;100.00
24825;BME280;12910;57.690;11.974;2022-07-17T01:54:14;100980.94;;;14.24;100.00
24825;BME280;12910;57.690;11.974;2022-07-17T01:56:40;100981.84;;;14.27;100.00
24825;BME280;12910;57.690;11.974;2022-07-17T01:59:05;100979.28;;;14.29;100.00
24825;BME280;12910;57.690;11.974;2022-07-17T02:01:30;100977.56;;;14.34;100.00
24825;BME280;12910;57.690;11.974;2022-07-17T02:03:56;100968.16;;;14.38;100.00
24825;BME280;12910;57.690;11.974;2022-07-17T02:06:22;100957.81;;;14.34;100.00
24825;BME280;12910;57.690;11.974;2022-07-17T02:08:47;100967.31;;;14.42;100.00
24825;BME280;12910;57.690;11.974;2022-07-17T02:11:16;100973.34;;;14.44;100.00
24825;BME280;12910;57.690;11.974;2022-07-17T02:13:42;100972.47;;;14.42;100.00
24825;BME280;12910;57.690;11.974;2022-07-17T02:16:07;100975.03;;;14.43;100.00
24825;BME280;12910;57.690;11.974;2022-07-17T02:18:34;100974.22;;;14.47;100.00
24825;BME280;12910;57.690;11.974;2022-07-17T02:20:59;100982.00;;;14.51;100.00
24825;BME280;12910;57.690;11.974;2022-07-17T02:23:25;100973.38;;;14.50;100.00
24825;BME280;12910;57.690;11.974;2022-07-17T02:25:50;100982.88;;;14.54;100.00
24825;BME280;12910;57.690;11.974;2022-07-17T02:28:15;100975.09;;;14.51;100.00
24825;BME280;12910;57.690;11.974;2022-07-17T02:30:41;100969.09;;;14.52;100.00
24825;BME280;12910;57.690;11.974;2022-07-17T02:33:07;100975.13;;;14.56;100.00
24825;BME280;12910;57.690;11.974;2022-07-17T02:35:33;100981.16;;;14.56;100.00
24825;BME280;12910;57.690;11.974;2022-07-17T02:37:59;100975.16;;;14.59;100.00
24825;BME280;12910;57.690;11.974;2022-07-17T02:40:25;100974.28;;;14.58;100.00
24825;BME280;12910;57.690;11.974;2022-07-17T02:42:50;100976.84;;;14.58;100.00
24825;BME280;12910;57.690;11.974;2022-07-17T02:45:16;100980.31;;;14.59;100.00
24825;BME280;12910;57.690;11.974;2022-07-17T02:47:41;100972.56;;;14.59;100.00
24825;BME280;12910;57.690;11.974;2022-07-17T02:50:08;100972.53;;;14.57;100.00
24825;BME280;12910;57.690;11.974;2022-07-17T02:52:35;100970.84;;;14.56;100.00
24825;BME280;12910;57.690;11.974;2022-07-17T02:55:00;100975.97;;;14.52;100.00
24825;BME280;12910;57.690;11.974;2022-07-17T02:57:26;100983.69;;;14.50;100.00
24825;BME280;12910;57.690;11.974;2022-07-17T02:59:51;100982.81;;;14.48;100.00
24825;BME280;12910;57.690;11.974;2022-07-17T03:02:17;100979.38;;;14.49;100.00
24825;BME280;12910;57.690;11.974;2022-07-17T03:04:42;100981.13;;;14.50;100.00
24825;BME280;12910;57.690;11.974;2022-07-17T03:07:08;100984.56;;;14.52;100.00
24825;BME280;12910;57.690;11.974;2022-07-17T03:09:33;100986.31;;;14.58;100.00
24825;BME280;12910;57.690;11.974;2022-07-17T03:11:59;100988.94;;;14.62;100.00
24825;BME280;12910;57.690;11.974;2022-07-17T03:14:24;100990.72;;;14.67;100.00
24825;BME280;12910;57.690;11.974;2022-07-17T03:16:50;100986.44;;;14.70;100.00
24825;BME280;12910;57.690;11.974;2022-07-17T03:19:15;100989.88;;;14.74;100.00
24825;BME280;12910;57.690;11.974;2022-07-17T03:21:40;100984.72;;;14.77;100.00
24825;BME280;12910;57.690;11.974;2022-07-17T03:24:06;100986.47;;;14.81;100.00
24825;BME280;12910;57.690;11.974;2022-07-17T03:26:32;100989.06;;;14.84;100.00
24825;BME280;12910;57.690;11.974;2022-07-17T03:28:57;100984.75;;;14.86;100.00
24825;BME280;12910;57.690;11.974;2022-07-17T03:31:23;100982.19;;;14.89;100.00
24825;BME280;12910;57.690;11.974;2022-07-17T03:33:48;100976.19;;;14.92;100.00
24825;BME280;12910;57.690;11.974;2022-07-17T03:36:14;100980.50;;;14.94;100.00
24825;BME280;12910;57.690;11.974;2022-07-17T03:38:39;100989.13;;;14.98;100.00
24825;BME280;12910;57.690;11.974;2022-07-17T03:41:04;100986.53;;;15.00;100.00
24825;BME280;12910;57.690;11.974;2022-07-17T03:43:30;100989.13;;;15.06;100.00
24825;BME280;12910;57.690;11.974;2022-07-17T03:45:55;100986.59;;;15.07;100.00
24825;BME280;12910;57.690;11.974;2022-07-17T03:48:21;100988.28;;;15.07;100.00
24825;BME280;12910;57.690;11.974;2022-07-17T03:50:46;100991.72;;;15.10;100.00
24825;BME280;12910;57.690;11.974;2022-07-17T03:53:11;100990.03;;;15.13;100.00
24825;BME280;12910;57.690;11.974;2022-07-17T03:55:37;100997.78;;;15.14;100.00
24825;BME280;12910;57.690;11.974;2022-07-17T03:58:02;101000.38;;;15.17;100.00
24825;BME280;12910;57.690;11.974;2022-07-17T04:00:28;101002.97;;;15.20;100.00
24825;BME280;12910;57.690;11.974;2022-07-17T04:02:53;101005.56;;;15.23;100.00
24825;BME280;12910;57.690;11.974;2022-07-17T04:05:19;101001.25;;;15.22;100.00
24825;BME280;12910;57.690;11.974;2022-07-17T04:07:45;101001.28;;;15.29;100.00
24825;BME280;12910;57.690;11.974;2022-07-17T04:10:12;101002.13;;;15.32;100.00
24825;BME280;12910;57.690;11.974;2022-07-17T04:12:38;101008.16;;;15.36;100.00
24825;BME280;12910;57.690;11.974;2022-07-17T04:15:05;101008.19;;;15.39;100.00
24825;BME280;12910;57.690;11.974;2022-07-17T04:17:31;101020.25;;;15.43;100.00
24825;BME280;12910;57.690;11.974;2022-07-17T04:19:56;101031.47;;;15.47;100.00
24825;BME280;12910;57.690;11.974;2022-07-17T04:22:22;101014.22;;;15.47;100.00
24825;BME280;12910;57.690;11.974;2022-07-17T04:24:48;101016.81;;;15.50;100.00
24825;BME280;12910;57.690;11.974;2022-07-17T04:27:13;101015.09;;;15.55;100.00
24825;BME280;12910;57.690;11.974;2022-07-17T04:29:39;101008.25;;;15.61;100.00
24825;BME280;12910;57.690;11.974;2022-07-17T04:32:05;101003.06;;;15.64;100.00
24825;BME280;12910;57.690;11.974;2022-07-17T04:34:30;101005.66;;;15.68;100.00
24825;BME280;12910;57.690;11.974;2022-07-17T04:36:57;101008.25;;;15.74;100.00
24825;BME280;12910;57.690;11.974;2022-07-17T04:39:23;101005.66;;;15.81;100.00
24825;BME280;12910;57.690;11.974;2022-07-17T04:41:49;101010.03;;;15.85;100.00
24825;BME280;12910;57.690;11.974;2022-07-17T04:44:14;100995.38;;;15.88;100.00
24825;BME280;12910;57.690;11.974;2022-07-17T04:46:41;101004.84;;;15.96;100.00
24825;BME280;12910;57.690;11.974;2022-07-17T04:49:06;100992.78;;;15.98;100.00
24825;BME280;12910;57.690;11.974;2022-07-17T04:51:31;100978.13;;;15.97;100.00
24825;BME280;12910;57.690;11.974;2022-07-17T04:53:57;100975.53;;;16.03;100.00
24825;BME280;12910;57.690;11.974;2022-07-17T04:56:22;100961.75;;;16.04;100.00
24825;BME280;12910;57.690;11.974;2022-07-17T04:58:47;100963.47;;;16.13;100.00
24825;BME280;12910;57.690;11.974;2022-07-17T05:01:13;100955.69;;;16.16;100.00
24825;BME280;12910;57.690;11.974;2022-07-17T05:03:38;100949.66;;;16.23;100.00
24825;BME280;12910;57.690;11.974;2022-07-17T05:06:03;100948.81;;;16.24;100.00
24825;BME280;12910;57.690;11.974;2022-07-17T05:08:29;100954.78;;;16.31;100.00
24825;BME280;12910;57.690;11.974;2022-07-17T05:10:55;100947.94;;;16.30;100.00
24825;BME280;12910;57.690;11.974;2022-07-17T05:13:20;100953.09;;;16.34;100.00
24825;BME280;12910;57.690;11.974;2022-07-17T05:15:45;100948.78;;;16.38;100.00
24825;BME280;12910;57.690;11.974;2022-07-17T05:18:11;100955.69;;;16.34;100.00
24825;BME280;12910;57.690;11.974;2022-07-17T05:20:39;100955.66;;;16.39;100.00
24825;BME280;12910;57.690;11.974;2022-07-17T05:23:04;100953.91;;;16.41;100.00
24825;BME280;12910;57.690;11.974;2022-07-17T05:25:30;100953.94;;;16.43;100.00
24825;BME280;12910;57.690;11.974;2022-07-17T05:27:56;100953.06;;;16.41;100.00
24825;BME280;12910;57.690;11.974;2022-07-17T05:30:21;100953.91;;;16.41;100.00
24825;BME280;12910;57.690;11.974;2022-07-17T05:32:46;100956.53;;;16.38;100.00
24825;BME280;12910;57.690;11.974;2022-07-17T05:35:12;100962.56;;;16.42;100.00
24825;BME280;12910;57.690;11.974;2022-07-17T05:37:37;100956.50;;;16.44;100.00
24825;BME280;12910;57.690;11.974;2022-07-17T05:40:03;100960.81;;;16.45;100.00
24825;BME280;12910;57.690;11.974;2022-07-17T05:42:29;100958.22;;;16.48;100.00
24825;BME280;12910;57.690;11.974;2022-07-17T05:44:54;100951.31;;;16.44;100.00
24825;BME280;12910;57.690;11.974;2022-07-17T05:47:20;100961.69;;;16.44;100.00
24825;BME280;12910;57.690;11.974;2022-07-17T05:49:45;100960.81;;;16.45;100.00
24825;BME280;12910;57.690;11.974;2022-07-17T05:52:10;100967.69;;;16.45;100.00
24825;BME280;12910;57.690;11.974;2022-07-17T05:54:36;100962.53;;;16.46;100.00
24825;BME280;12910;57.690;11.974;2022-07-17T05:57:01;100959.13;;;16.38;100.00
24825;BME280;12910;57.690;11.974;2022-07-17T05:59:27;100959.13;;;16.38;100.00
24825;BME280;12910;57.690;11.974;2022-07-17T06:01:52;100966.84;;;16.36;100.00
24825;BME280;12910;57.690;11.974;2022-07-17T06:04:18;100977.22;;;16.32;100.00
24825;BME280;12910;57.690;11.974;2022-07-17T06:06:43;100978.97;;;16.27;100.00
24825;BME280;12910;57.690;11.974;2022-07-17T06:09:09;100978.13;;;16.23;100.00
24825;BME280;12910;57.690;11.974;2022-07-17T06:11:34;100983.28;;;16.20;100.00
24825;BME280;12910;57.690;11.974;2022-07-17T06:13:59;100984.13;;;16.24;100.00
24825;BME280;12910;57.690;11.974;2022-07-17T06:16:25;100989.31;;;16.24;100.00
24825;BME280;12910;57.690;11.974;2022-07-17T06:18:50;100997.94;;;16.26;100.00
24825;BME280;12910;57.690;11.974;2022-07-17T06:21:16;100997.91;;;16.32;100.00
24825;BME280;12910;57.690;11.974;2022-07-17T06:23:41;101005.66;;;16.32;100.00
24825;BME280;12910;57.690;11.974;2022-07-17T06:26:06;100996.16;;;16.43;100.00
24825;BME280;12910;57.690;11.974;2022-07-17T06:28:32;100998.75;;;16.51;100.00
24825;BME280;12910;57.690;11.974;2022-07-17T06:30:57;101003.03;;;16.63;100.00
24825;BME280;12910;57.690;11.974;2022-07-17T06:33:23;101021.13;;;16.75;100.00
24825;BME280;12910;57.690;11.974;2022-07-17T06:35:48;100997.81;;;16.80;100.00
24825;BME280;12910;57.690;11.974;2022-07-17T06:38:13;101002.97;;;16.85;100.00
24825;BME280;12910;57.690;11.974;2022-07-17T06:40:39;101007.25;;;16.90;100.00
24825;BME280;12910;57.690;11.974;2022-07-17T06:43:05;101008.09;;;16.91;100.00
24825;BME280;12910;57.690;11.974;2022-07-17T06:45:32;101013.28;;;16.91;100.00
24825;BME280;12910;57.690;11.974;2022-07-17T06:47:57;101032.31;;;16.87;100.00
24825;BME280;12910;57.690;11.974;2022-07-17T06:50:23;101018.50;;;16.94;100.00
24825;BME280;12910;57.690;11.974;2022-07-17T06:52:48;101020.19;;;17.01;100.00
24825;BME280;12910;57.690;11.974;2022-07-17T06:55:13;101027.97;;;16.96;100.00
24825;BME280;12910;57.690;11.974;2022-07-17T06:57:39;101026.25;;;16.98;100.00
24825;BME280;12910;57.690;11.974;2022-07-17T07:00:05;101033.16;;;16.95;100.00
24825;BME280;12910;57.690;11.974;2022-07-17T07:02:30;101027.09;;;16.99;100.00
24825;BME280;12910;57.690;11.974;2022-07-17T07:04:56;101023.63;;;17.03;100.00
24825;BME280;12910;57.690;11.974;2022-07-17T07:07:21;101020.19;;;17.04;100.00
24825;BME280;12910;57.690;11.974;2022-07-17T07:09:46;101024.47;;;17.07;100.00
24825;BME280;12910;57.690;11.974;2022-07-17T07:12:12;101028.81;;;17.06;100.00
24825;BME280;12910;57.690;11.974;2022-07-17T07:14:37;101033.97;;;17.08;100.00
24825;BME280;12910;57.690;11.974;2022-07-17T07:17:03;101032.25;;;17.07;100.00
24825;BME280;12910;57.690;11.974;2022-07-17T07:19:28;101036.59;;;17.06;100.00
24825;BME280;12910;57.690;11.974;2022-07-17T07:21:54;101043.47;;;17.12;100.00
24825;BME280;12910;57.690;11.974;2022-07-17T07:24:19;101038.28;;;17.07;100.00
24825;BME280;12910;57.690;11.974;2022-07-17T07:26:44;101041.72;;;17.14;100.00
24825;BME280;12910;57.690;11.974;2022-07-17T07:29:10;101036.53;;;17.20;100.00
24825;BME280;12910;57.690;11.974;2022-07-17T07:31:35;101052.03;;;17.25;100.00
24825;BME280;12910;57.690;11.974;2022-07-17T07:34:01;101046.84;;;17.29;100.00
24825;BME280;12910;57.690;11.974;2022-07-17T07:36:26;101045.09;;;17.32;100.00
24825;BME280;12910;57.690;11.974;2022-07-17T07:38:52;101024.41;;;17.28;100.00
24825;BME280;12910;57.690;11.974;2022-07-17T07:41:18;101045.03;;;17.41;100.00
24825;BME280;12910;57.690;11.974;2022-07-17T07:43:43;101051.13;;;17.32;100.00
24825;BME280;12910;57.690;11.974;2022-07-17T07:46:08;101054.59;;;17.33;100.00
24825;BME280;12910;57.690;11.974;2022-07-17T07:48:34;101044.25;;;17.28;100.00
24825;BME280;12910;57.690;11.974;2022-07-17T07:50:59;101047.69;;;17.30;100.00
24825;BME280;12910;57.690;11.974;2022-07-17T07:53:25;101048.56;;;17.32;100.00
24825;BME280;12910;57.690;11.974;2022-07-17T07:55:50;101058.91;;;17.35;100.00
24825;BME280;12910;57.690;11.974;2022-07-17T07:58:15;101068.41;;;17.33;100.00
24825;BME280;12910;57.690;11.974;2022-07-17T08:00:44;101055.47;;;17.30;100.00
24825;BME280;12910;57.690;11.974;2022-07-17T08:03:09;101068.41;;;17.30;100.00
24825;BME280;12910;57.690;11.974;2022-07-17T08:05:35;101057.19;;;17.31;100.00
24825;BME280;12910;57.690;11.974;2022-07-17T08:08:01;101066.69;;;17.35;100.00
24825;BME280;12910;57.690;11.974;2022-07-17T08:10:27;101063.19;;;17.42;100.00
24825;BME280;12910;57.690;11.974;2022-07-17T08:12:53;101064.88;;;17.50;100.00
24825;BME280;12910;57.690;11.974;2022-07-17T08:15:19;101072.63;;;17.54;100.00
24825;BME280;12910;57.690;11.974;2022-07-17T08:17:47;101066.53;;;17.62;100.00
24825;BME280;12910;57.690;11.974;2022-07-17T08:20:13;101065.66;;;17.64;100.00
24825;BME280;12910;57.690;11.974;2022-07-17T08:22:39;101078.56;;;17.73;100.00
24825;BME280;12910;57.690;11.974;2022-07-17T08:25:05;101075.00;;;17.87;100.00
24825;BME280;12910;57.690;11.974;2022-07-17T08:27:41;101077.56;;;17.93;100.00
24825;BME280;12910;57.690;11.974;2022-07-17T08:30:09;101074.97;;;17.96;100.00
24825;BME280;12910;57.690;11.974;2022-07-17T08:32:36;101071.50;;;17.97;100.00
24825;BME280;12910;57.690;11.974;2022-07-17T08:35:02;101084.47;;;17.97;100.00
24825;BME280;12910;57.690;11.974;2022-07-17T08:37:28;101077.56;;;17.91;100.00
24825;BME280;12910;57.690;11.974;2022-07-17T08:39:54;101081.94;;;17.86;100.00
24825;BME280;12910;57.690;11.974;2022-07-17T08:42:19;101088.06;;;17.74;100.00
24825;BME280;12910;57.690;11.974;2022-07-17T08:44:45;101085.44;;;17.78;100.00
24825;BME280;12910;57.690;11.974;2022-07-17T08:47:12;101090.63;;;17.78;100.00
24825;BME280;12910;57.690;11.974;2022-07-17T08:49:46;101094.97;;;17.77;100.00
24825;BME280;12910;57.690;11.974;2022-07-17T08:52:14;101082.88;;;17.74;100.00
24825;BME280;12910;57.690;11.974;2022-07-17T08:54:41;101090.63;;;17.78;100.00
24825;BME280;12910;57.690;11.974;2022-07-17T08:57:06;101104.44;;;17.81;100.00
24825;BME280;12910;57.690;11.974;2022-07-17T08:59:32;101116.53;;;17.85;100.00
24825;BME280;12910;57.690;11.974;2022-07-17T09:01:58;101116.47;;;17.93;100.00
24825;BME280;12910;57.690;11.974;2022-07-17T09:04:24;101120.78;;;17.94;100.00
24825;BME280;12910;57.690;11.974;2022-07-17T09:07:03;101116.47;;;17.93;100.00
24825;BME280;12910;57.690;11.974;2022-07-17T09:09:30;101118.19;;;17.97;100.00
24825;BME280;12910;57.690;11.974;2022-07-17T09:11:57;101110.41;;;17.96;100.00
24825;BME280;12910;57.690;11.974;2022-07-17T09:14:24;101118.19;;;17.94;100.00
24825;BME280;12910;57.690;11.974;2022-07-17T09:16:55;101109.53;;;17.95;100.00
24825;BME280;12910;57.690;11.974;2022-07-17T09:27:10;101123.41;;;17.88;100.00
24825;BME280;12910;57.690;11.974;2022-07-17T09:32:25;101125.97;;;17.96;100.00
24825;BME280;12910;57.690;11.974;2022-07-17T09:34:53;101138.03;;;18.04;100.00
24825;BME280;12910;57.690;11.974;2022-07-17T09:37:21;101134.59;;;18.01;100.00
24825;BME280;12910;57.690;11.974;2022-07-17T09:39:47;101137.19;;;18.01;100.00
24825;BME280;12910;57.690;11.974;2022-07-17T09:42:30;101149.34;;;17.85;100.00
24825;BME280;12910;57.690;11.974;2022-07-17T09:45:01;101149.41;;;17.79;100.00
24825;BME280;12910;57.690;11.974;2022-07-17T09:47:27;101145.94;;;17.76;100.00
24825;BME280;12910;57.690;11.974;2022-07-17T09:49:54;101154.59;;;17.79;100.00
24825;BME280;12910;57.690;11.974;2022-07-17T09:52:25;101141.56;;;17.85;100.00
24825;BME280;12910;57.690;11.974;2022-07-17T09:54:53;101135.53;;;17.86;100.00
24825;BME280;12910;57.690;11.974;2022-07-17T09:57:20;101134.63;;;17.96;100.00
24825;BME280;12910;57.690;11.974;2022-07-17T09:59:50;101138.06;;;18.01;100.00
24825;BME280;12910;57.690;11.974;2022-07-17T10:02:16;101138.03;;;18.06;100.00
24825;BME280;12910;57.690;11.974;2022-07-17T10:04:42;101151.84;;;18.13;100.00
24825;BME280;12910;57.690;11.974;2022-07-17T10:07:07;101150.09;;;18.10;100.00
24825;BME280;12910;57.690;11.974;2022-07-17T10:09:34;101149.25;;;18.13;100.00
24825;BME280;12910;57.690;11.974;2022-07-17T10:12:00;101153.50;;;18.20;100.00
24825;BME280;12910;57.690;11.974;2022-07-17T10:14:26;101150.00;;;18.24;100.00
24825;BME280;12910;57.690;11.974;2022-07-17T10:16:52;101160.41;;;18.22;100.00
24825;BME280;12910;57.690;11.974;2022-07-17T10:19:24;101151.03;;;18.03;100.00
24825;BME280;12910;57.690;11.974;2022-07-17T10:21:58;101147.59;;;17.99;100.00
24825;BME280;12910;57.690;11.974;2022-07-17T10:24:24;101151.94;;;17.91;100.00
24825;BME280;12910;57.690;11.974;2022-07-17T10:26:50;101146.75;;;17.91;100.00
24825;BME280;12910;57.690;11.974;2022-07-17T10:29:35;101160.53;;;18.07;100.00
24825;BME280;12910;57.690;11.974;2022-07-17T10:32:09;101157.88;;;18.16;100.00
24825;BME280;12910;57.690;11.974;2022-07-17T10:34:52;101150.03;;;18.22;100.00
24825;BME280;12910;57.690;11.974;2022-07-17T10:37:20;101147.47;;;18.21;100.00
24825;BME280;12910;57.690;11.974;2022-07-17T10:39:53;101141.31;;;18.31;100.00
24825;BME280;12910;57.690;11.974;2022-07-17T10:45:18;101154.19;;;18.47;100.00
24825;BME280;12910;57.690;11.974;2022-07-17T10:47:52;101155.13;;;18.35;100.00
24825;BME280;12910;57.690;11.974;2022-07-17T10:50:21;101166.47;;;18.25;100.00
24825;BME280;12910;57.690;11.974;2022-07-17T10:53:23;101165.69;;;18.12;100.00
24825;BME280;12910;57.690;11.974;2022-07-17T10:58:26;101183.91;;;18.02;100.00
24825;BME280;12910;57.690;11.974;2022-07-17T11:00:57;101183.91;;;17.93;100.00
24825;BME280;12910;57.690;11.974;2022-07-17T11:03:22;101176.13;;;17.95;100.00
24825;BME280;12910;57.690;11.974;2022-07-17T11:05:48;101177.81;;;18.05;100.00
24825;BME280;12910;57.690;11.974;2022-07-17T11:08:13;101189.88;;;18.12;100.00
24825;BME280;12910;57.690;11.974;2022-07-17T11:10:40;101189.88;;;18.15;100.00
24825;BME280;12910;57.690;11.974;2022-07-17T11:13:11;101189.03;;;18.10;100.00
24825;BME280;12910;57.690;11.974;2022-07-17T11:15:48;101191.56;;;18.18;100.00
24825;BME280;12910;57.690;11.974;2022-07-17T11:18:20;101195.91;;;18.17;100.00
24825;BME280;12910;57.690;11.974;2022-07-17T11:20:56;101188.97;;;18.18;100.00
24825;BME280;12910;57.690;11.974;2022-07-17T11:23:24;101193.31;;;18.16;100.00
24825;BME280;12910;57.690;11.974;2022-07-17T11:26:08;101204.59;;;18.12;100.00
24825;BME280;12910;57.690;11.974;2022-07-17T11:28:34;101202.81;;;18.20;100.00
24825;BME280;12910;57.690;11.974;2022-07-17T11:31:02;101206.09;;;18.44;100.00
24825;BME280;12910;57.690;11.974;2022-07-17T11:33:28;101219.06;;;18.47;100.00
24825;BME280;12910;57.690;11.974;2022-07-17T11:35:53;101201.69;;;18.57;100.00
24825;BME280;12910;57.690;11.974;2022-07-17T11:38:28;101219.00;;;18.56;100.00
24825;BME280;12910;57.690;11.974;2022-07-17T11:40:56;101215.59;;;18.48;100.00
24825;BME280;12910;57.690;11.974;2022-07-17T11:43:22;101219.88;;;18.55;100.00
24825;BME280;12910;57.690;11.974;2022-07-17T11:45:48;101201.84;;;18.36;100.00
24825;BME280;12910;57.690;11.974;2022-07-17T11:48:14;101230.38;;;18.40;100.00
24825;BME280;12910;57.690;11.974;2022-07-17T11:50:40;101227.75;;;18.43;100.00
24825;BME280;12910;57.690;11.974;2022-07-17T11:53:05;101227.69;;;18.50;100.00
24825;BME280;12910;57.690;11.974;2022-07-17T11:55:40;101232.78;;;18.64;100.00
24825;BME280;12910;57.690;11.974;2022-07-17T11:58:05;101215.53;;;18.57;100.00
24825;BME280;12910;57.690;11.974;2022-07-17T12:00:32;101230.31;;;18.49;100.00
24825;BME280;12910;57.690;11.974;2022-07-17T12:03:03;101227.72;;;18.49;100.00
24825;BME280;12910;57.690;11.974;2022-07-17T12:05:31;101227.69;;;18.53;100.00
24825;BME280;12910;57.690;11.974;2022-07-17T12:07:57;101230.25;;;18.58;100.00
24825;BME280;12910;57.690;11.974;2022-07-17T12:10:24;101231.19;;;18.46;100.00
24825;BME280;12910;57.690;11.974;2022-07-17T12:13:00;101220.84;;;18.40;100.00
24825;BME280;12910;57.690;11.974;2022-07-17T12:15:39;101234.72;;;18.36;100.00
24825;BME280;12910;57.690;11.974;2022-07-17T12:18:05;101228.66;;;18.35;100.00
24825;BME280;12910;57.690;11.974;2022-07-17T12:20:43;101227.75;;;18.41;100.00
24825;BME280;12910;57.690;11.974;2022-07-17T12:23:09;101216.41;;;18.53;100.00
24825;BME280;12910;57.690;11.974;2022-07-17T12:25:34;101236.34;;;18.56;100.00
24825;BME280;12910;57.690;11.974;2022-07-17T12:28:00;101232.94;;;18.44;100.00
24825;BME280;12910;57.690;11.974;2022-07-17T12:30:25;101233.88;;;18.34;100.00
24825;BME280;12910;57.690;11.974;2022-07-17T12:32:51;101234.75;;;18.30;100.00
24825;BME280;12910;57.690;11.974;2022-07-17T12:35:16;101243.34;;;18.40;100.00
24825;BME280;12910;57.690;11.974;2022-07-17T12:37:42;101240.84;;;18.24;100.00
24825;BME280;12910;57.690;11.974;2022-07-17T12:40:08;101236.53;;;18.18;100.00
24825;BME280;12910;57.690;11.974;2022-07-17T12:42:34;101234.75;;;18.33;100.00
24825;BME280;12910;57.690;11.974;2022-07-17T12:44:59;101236.44;;;18.32;100.00